aviador You're here:

ETAR Decoded Metar

RAMSTEIN in GERMANY
Report Time2017-08-22 10:58:00
UTC Time2017-08-22 11:15:16
Flight Rules vfr VFR
Wind080° at 03 kt
W.Decomp.*RWY 09: 2.9 kt HW 0.6 kt LCW
RWY 08: 3.0 kt HW 0.1 kt LCW
W.Rank080° ranks 12
Current wind is below 080° avg. (4.3)
Visibility9999 m
Phenomena:N/A
Clouds:Few 060 Hf
Scattered 200 Hf
Expected CloudBase > 4,800 ft AGL from Temp-Dew spread
CeilingNone
Temp22°C (ISA +9)
Dew Point10°C (47% RH)
AAT21.0°C
QNH1021 hPa
Density Alt1,677 ft
Elevation781 ft
Report Wrong Elevation
Raw Report
ETAR 221058Z 08003KT 9999 FEW060 SCT200 22/10 A3014 RMK AO2A
SLP206 T02210096 $=

Extra information for ETAR:More info

Metar Taf Metar & Taf Last 4 Metars F.Rules Stats Wind Profile Meteogram Temp Stats Airport Information Weather charts Add Link Nearby VenuesMetar ALERT Operation Metar Decoded Social comments